sensor_id;sensor_type;location;lat;lon;timestamp;P1;durP1;ratioP1;P2;durP2;ratioP2
47958;SDS011;33718;50.910;-1.514;2023-01-08T00:01:31;21.90;;;4.63;;
47958;SDS011;33718;50.910;-1.514;2023-01-08T00:05:45;25.13;;;3.90;;
47958;SDS011;33718;50.910;-1.514;2023-01-08T00:07:50;19.58;;;4.38;;
47958;SDS011;33718;50.910;-1.514;2023-01-08T00:09:51;25.67;;;4.65;;
47958;SDS011;33718;50.910;-1.514;2023-01-08T00:11:55;19.70;;;3.13;;
47958;SDS011;33718;50.910;-1.514;2023-01-08T00:13:59;19.17;;;3.17;;
47958;SDS011;33718;50.910;-1.514;2023-01-08T00:16:01;18.52;;;3.42;;
47958;SDS011;33718;50.910;-1.514;2023-01-08T00:18:09;22.73;;;4.15;;
47958;SDS011;33718;50.910;-1.514;2023-01-08T00:20:13;27.13;;;4.22;;
47958;SDS011;33718;50.910;-1.514;2023-01-08T00:22:15;18.25;;;3.88;;
47958;SDS011;33718;50.910;-1.514;2023-01-08T00:24:22;20.15;;;4.10;;
47958;SDS011;33718;50.910;-1.514;2023-01-08T00:26:24;23.23;;;5.15;;
47958;SDS011;33718;50.910;-1.514;2023-01-08T00:28:25;15.20;;;2.97;;
47958;SDS011;33718;50.910;-1.514;2023-01-08T00:30:27;18.50;;;3.70;;
47958;SDS011;33718;50.910;-1.514;2023-01-08T00:32:28;20.95;;;4.38;;
47958;SDS011;33718;50.910;-1.514;2023-01-08T00:34:35;16.67;;;3.67;;
47958;SDS011;33718;50.910;-1.514;2023-01-08T00:36:39;24.15;;;3.60;;
47958;SDS011;33718;50.910;-1.514;2023-01-08T00:38:44;18.15;;;4.13;;
47958;SDS011;33718;50.910;-1.514;2023-01-08T00:40:52;18.98;;;3.67;;
47958;SDS011;33718;50.910;-1.514;2023-01-08T00:44:57;18.58;;;4.53;;
47958;SDS011;33718;50.910;-1.514;2023-01-08T00:47:02;24.77;;;4.03;;
47958;SDS011;33718;50.910;-1.514;2023-01-08T00:49:03;12.55;;;2.70;;
47958;SDS011;33718;50.910;-1.514;2023-01-08T00:51:08;19.88;;;3.13;;
47958;SDS011;33718;50.910;-1.514;2023-01-08T00:53:12;18.77;;;4.10;;
47958;SDS011;33718;50.910;-1.514;2023-01-08T00:55:17;9.90;;;2.63;;
47958;SDS011;33718;50.910;-1.514;2023-01-08T00:57:21;22.42;;;3.65;;
47958;SDS011;33718;50.910;-1.514;2023-01-08T00:59:26;18.00;;;3.47;;
47958;SDS011;33718;50.910;-1.514;2023-01-08T01:01:33;20.73;;;3.67;;
47958;SDS011;33718;50.910;-1.514;2023-01-08T01:03:35;13.63;;;3.83;;
47958;SDS011;33718;50.910;-1.514;2023-01-08T01:07:41;14.27;;;2.97;;
47958;SDS011;33718;50.910;-1.514;2023-01-08T01:09:42;15.15;;;4.60;;
47958;SDS011;33718;50.910;-1.514;2023-01-08T01:11:47;17.27;;;3.42;;
47958;SDS011;33718;50.910;-1.514;2023-01-08T01:13:48;12.57;;;2.25;;
47958;SDS011;33718;50.910;-1.514;2023-01-08T01:15:57;7.82;;;1.88;;
47958;SDS011;33718;50.910;-1.514;2023-01-08T01:18:02;11.27;;;3.58;;
47958;SDS011;33718;50.910;-1.514;2023-01-08T01:20:10;12.57;;;2.67;;
47958;SDS011;33718;50.910;-1.514;2023-01-08T01:22:13;13.18;;;2.50;;
47958;SDS011;33718;50.910;-1.514;2023-01-08T01:24:17;17.70;;;3.92;;
47958;SDS011;33718;50.910;-1.514;2023-01-08T01:26:22;13.95;;;3.10;;
47958;SDS011;33718;50.910;-1.514;2023-01-08T01:28:23;15.57;;;3.13;;
47958;SDS011;33718;50.910;-1.514;2023-01-08T01:30:25;14.70;;;2.88;;
47958;SDS011;33718;50.910;-1.514;2023-01-08T01:32:29;13.43;;;2.72;;
47958;SDS011;33718;50.910;-1.514;2023-01-08T01:34:31;19.65;;;2.90;;
47958;SDS011;33718;50.910;-1.514;2023-01-08T01:36:36;15.60;;;4.03;;
47958;SDS011;33718;50.910;-1.514;2023-01-08T01:38:47;14.57;;;3.20;;
47958;SDS011;33718;50.910;-1.514;2023-01-08T01:40:51;15.65;;;3.05;;
47958;SDS011;33718;50.910;-1.514;2023-01-08T01:42:56;11.40;;;2.92;;
47958;SDS011;33718;50.910;-1.514;2023-01-08T01:45:10;12.07;;;1.92;;
47958;SDS011;33718;50.910;-1.514;2023-01-08T01:47:21;9.25;;;2.03;;
47958;SDS011;33718;50.910;-1.514;2023-01-08T01:49:28;8.52;;;1.67;;
47958;SDS011;33718;50.910;-1.514;2023-01-08T01:51:32;13.90;;;3.28;;
47958;SDS011;33718;50.910;-1.514;2023-01-08T01:53:33;22.45;;;3.88;;
47958;SDS011;33718;50.910;-1.514;2023-01-08T01:55:37;14.25;;;3.00;;
47958;SDS011;33718;50.910;-1.514;2023-01-08T01:57:46;12.38;;;3.10;;
47958;SDS011;33718;50.910;-1.514;2023-01-08T01:59:49;11.80;;;2.35;;
47958;SDS011;33718;50.910;-1.514;2023-01-08T02:01:50;11.80;;;2.25;;
47958;SDS011;33718;50.910;-1.514;2023-01-08T02:03:56;9.55;;;2.13;;
47958;SDS011;33718;50.910;-1.514;2023-01-08T02:10:08;23.90;;;3.38;;
47958;SDS011;33718;50.910;-1.514;2023-01-08T02:12:22;23.15;;;4.28;;
47958;SDS011;33718;50.910;-1.514;2023-01-08T02:14:27;15.02;;;2.50;;
47958;SDS011;33718;50.910;-1.514;2023-01-08T02:18:54;17.13;;;2.78;;
47958;SDS011;33718;50.910;-1.514;2023-01-08T02:21:08;23.02;;;3.13;;
47958;SDS011;33718;50.910;-1.514;2023-01-08T02:25:52;5.45;;;1.42;;
47958;SDS011;33718;50.910;-1.514;2023-01-08T02:27:54;6.07;;;1.30;;
47958;SDS011;33718;50.910;-1.514;2023-01-08T02:29:57;6.18;;;1.67;;
47958;SDS011;33718;50.910;-1.514;2023-01-08T02:31:58;2.65;;;0.80;;
47958;SDS011;33718;50.910;-1.514;2023-01-08T02:36:20;5.68;;;1.15;;
47958;SDS011;33718;50.910;-1.514;2023-01-08T02:38:26;3.83;;;1.15;;
47958;SDS011;33718;50.910;-1.514;2023-01-08T02:40:39;3.50;;;0.82;;
47958;SDS011;33718;50.910;-1.514;2023-01-08T02:44:53;5.53;;;0.82;;
47958;SDS011;33718;50.910;-1.514;2023-01-08T02:46:55;4.07;;;0.68;;
47958;SDS011;33718;50.910;-1.514;2023-01-08T02:49:02;4.25;;;0.70;;
47958;SDS011;33718;50.910;-1.514;2023-01-08T02:53:30;5.85;;;0.80;;
47958;SDS011;33718;50.910;-1.514;2023-01-08T02:55:33;5.20;;;0.75;;
47958;SDS011;33718;50.910;-1.514;2023-01-08T02:57:35;4.05;;;0.70;;
47958;SDS011;33718;50.910;-1.514;2023-01-08T02:59:43;3.70;;;0.73;;
47958;SDS011;33718;50.910;-1.514;2023-01-08T03:01:46;4.28;;;0.73;;
47958;SDS011;33718;50.910;-1.514;2023-01-08T03:03:50;1.55;;;0.50;;
47958;SDS011;33718;50.910;-1.514;2023-01-08T03:06:03;1.80;;;0.60;;
47958;SDS011;33718;50.910;-1.514;2023-01-08T03:08:11;4.03;;;0.68;;
47958;SDS011;33718;50.910;-1.514;2023-01-08T03:10:13;3.13;;;0.82;;
47958;SDS011;33718;50.910;-1.514;2023-01-08T03:12:28;1.42;;;0.50;;
47958;SDS011;33718;50.910;-1.514;2023-01-08T03:14:40;4.32;;;0.63;;
47958;SDS011;33718;50.910;-1.514;2023-01-08T03:16:45;7.53;;;1.15;;
47958;SDS011;33718;50.910;-1.514;2023-01-08T03:20:49;5.22;;;1.13;;
47958;SDS011;33718;50.910;-1.514;2023-01-08T03:22:55;4.05;;;0.90;;
47958;SDS011;33718;50.910;-1.514;2023-01-08T03:25:03;2.83;;;0.50;;
47958;SDS011;33718;50.910;-1.514;2023-01-08T03:27:06;2.33;;;0.85;;
47958;SDS011;33718;50.910;-1.514;2023-01-08T03:29:16;6.15;;;0.88;;
47958;SDS011;33718;50.910;-1.514;2023-01-08T03:31:19;5.05;;;1.33;;
47958;SDS011;33718;50.910;-1.514;2023-01-08T03:33:28;4.00;;;0.88;;
47958;SDS011;33718;50.910;-1.514;2023-01-08T03:35:33;3.38;;;1.17;;
47958;SDS011;33718;50.910;-1.514;2023-01-08T03:37:39;4.53;;;1.20;;
47958;SDS011;33718;50.910;-1.514;2023-01-08T03:39:52;6.22;;;1.15;;
47958;SDS011;33718;50.910;-1.514;2023-01-08T03:42:03;4.88;;;1.10;;
47958;SDS011;33718;50.910;-1.514;2023-01-08T03:44:12;5.60;;;1.33;;
47958;SDS011;33718;50.910;-1.514;2023-01-08T03:46:21;13.63;;;2.15;;
47958;SDS011;33718;50.910;-1.514;2023-01-08T03:48:31;5.80;;;1.02;;
47958;SDS011;33718;50.910;-1.514;2023-01-08T03:50:36;5.10;;;0.80;;
47958;SDS011;33718;50.910;-1.514;2023-01-08T03:52:38;8.05;;;1.20;;
47958;SDS011;33718;50.910;-1.514;2023-01-08T03:54:45;5.38;;;0.80;;
47958;SDS011;33718;50.910;-1.514;2023-01-08T03:56:47;3.08;;;0.93;;
47958;SDS011;33718;50.910;-1.514;2023-01-08T03:58:48;4.20;;;1.05;;
47958;SDS011;33718;50.910;-1.514;2023-01-08T04:00:50;7.20;;;1.15;;
47958;SDS011;33718;50.910;-1.514;2023-01-08T04:02:51;5.28;;;1.15;;
47958;SDS011;33718;50.910;-1.514;2023-01-08T04:04:56;4.30;;;1.20;;
47958;SDS011;33718;50.910;-1.514;2023-01-08T04:07:03;5.93;;;1.10;;
47958;SDS011;33718;50.910;-1.514;2023-01-08T04:09:04;4.90;;;1.40;;
47958;SDS011;33718;50.910;-1.514;2023-01-08T04:11:06;3.15;;;0.80;;
47958;SDS011;33718;50.910;-1.514;2023-01-08T04:13:07;3.35;;;0.80;;
47958;SDS011;33718;50.910;-1.514;2023-01-08T04:15:09;3.35;;;0.65;;
47958;SDS011;33718;50.910;-1.514;2023-01-08T04:17:14;3.72;;;0.50;;
47958;SDS011;33718;50.910;-1.514;2023-01-08T04:19:16;1.42;;;0.50;;
47958;SDS011;33718;50.910;-1.514;2023-01-08T04:21:17;3.10;;;0.60;;
47958;SDS011;33718;50.910;-1.514;2023-01-08T04:23:22;1.23;;;0.47;;
47958;SDS011;33718;50.910;-1.514;2023-01-08T04:25:26;5.60;;;0.60;;
47958;SDS011;33718;50.910;-1.514;2023-01-08T04:27:30;5.22;;;0.75;;
47958;SDS011;33718;50.910;-1.514;2023-01-08T04:29:35;2.80;;;1.05;;
47958;SDS011;33718;50.910;-1.514;2023-01-08T04:31:36;7.15;;;1.30;;
47958;SDS011;33718;50.910;-1.514;2023-01-08T04:33:38;7.97;;;1.13;;
47958;SDS011;33718;50.910;-1.514;2023-01-08T04:35:39;3.45;;;0.70;;
47958;SDS011;33718;50.910;-1.514;2023-01-08T04:37:44;5.82;;;0.85;;
47958;SDS011;33718;50.910;-1.514;2023-01-08T04:39:51;4.97;;;0.80;;
47958;SDS011;33718;50.910;-1.514;2023-01-08T04:41:56;2.38;;;0.60;;
47958;SDS011;33718;50.910;-1.514;2023-01-08T04:43:57;5.57;;;0.75;;
47958;SDS011;33718;50.910;-1.514;2023-01-08T04:46:04;2.63;;;1.02;;
47958;SDS011;33718;50.910;-1.514;2023-01-08T04:48:09;3.08;;;0.50;;
47958;SDS011;33718;50.910;-1.514;2023-01-08T04:50:11;4.60;;;0.70;;
47958;SDS011;33718;50.910;-1.514;2023-01-08T04:52:15;3.75;;;0.80;;
47958;SDS011;33718;50.910;-1.514;2023-01-08T04:54:23;2.22;;;0.50;;
47958;SDS011;33718;50.910;-1.514;2023-01-08T04:56:30;3.15;;;0.50;;
47958;SDS011;33718;50.910;-1.514;2023-01-08T04:58:35;3.67;;;0.88;;
47958;SDS011;33718;50.910;-1.514;2023-01-08T05:00:37;2.95;;;0.60;;
47958;SDS011;33718;50.910;-1.514;2023-01-08T05:02:39;2.35;;;0.60;;
47958;SDS011;33718;50.910;-1.514;2023-01-08T05:04:43;3.30;;;0.45;;
47958;SDS011;33718;50.910;-1.514;2023-01-08T05:06:51;2.55;;;0.75;;
47958;SDS011;33718;50.910;-1.514;2023-01-08T05:08:55;2.13;;;0.40;;
47958;SDS011;33718;50.910;-1.514;2023-01-08T05:10:57;2.13;;;0.50;;
47958;SDS011;33718;50.910;-1.514;2023-01-08T05:13:05;0.95;;;0.43;;
47958;SDS011;33718;50.910;-1.514;2023-01-08T05:15:09;0.70;;;0.20;;
47958;SDS011;33718;50.910;-1.514;2023-01-08T05:17:11;2.13;;;0.45;;
47958;SDS011;33718;50.910;-1.514;2023-01-08T05:19:12;0.68;;;0.20;;
47958;SDS011;33718;50.910;-1.514;2023-01-08T05:21:17;2.38;;;0.40;;
47958;SDS011;33718;50.910;-1.514;2023-01-08T05:25:29;0.93;;;0.20;;
47958;SDS011;33718;50.910;-1.514;2023-01-08T05:27:41;1.75;;;0.40;;
47958;SDS011;33718;50.910;-1.514;2023-01-08T05:29:57;1.13;;;0.30;;
47958;SDS011;33718;50.910;-1.514;2023-01-08T05:32:12;1.13;;;0.40;;
47958;SDS011;33718;50.910;-1.514;2023-01-08T05:34:24;4.30;;;0.52;;
47958;SDS011;33718;50.910;-1.514;2023-01-08T05:36:37;1.10;;;0.40;;
47958;SDS011;33718;50.910;-1.514;2023-01-08T05:38:48;2.15;;;0.50;;
47958;SDS011;33718;50.910;-1.514;2023-01-08T05:40:56;3.38;;;0.65;;
47958;SDS011;33718;50.910;-1.514;2023-01-08T05:43:15;1.92;;;0.50;;
47958;SDS011;33718;50.910;-1.514;2023-01-08T05:45:31;2.10;;;0.52;;
47958;SDS011;33718;50.910;-1.514;2023-01-08T05:47:42;2.90;;;0.63;;
47958;SDS011;33718;50.910;-1.514;2023-01-08T05:50:00;5.07;;;0.77;;
47958;SDS011;33718;50.910;-1.514;2023-01-08T05:52:17;1.65;;;0.40;;
47958;SDS011;33718;50.910;-1.514;2023-01-08T05:54:27;1.30;;;0.40;;
47958;SDS011;33718;50.910;-1.514;2023-01-08T05:56:35;4.22;;;0.60;;
47958;SDS011;33718;50.910;-1.514;2023-01-08T05:58:37;3.13;;;0.63;;
47958;SDS011;33718;50.910;-1.514;2023-01-08T06:00:39;2.38;;;0.50;;
47958;SDS011;33718;50.910;-1.514;2023-01-08T06:02:46;2.17;;;0.40;;
47958;SDS011;33718;50.910;-1.514;2023-01-08T06:04:51;2.15;;;0.55;;
47958;SDS011;33718;50.910;-1.514;2023-01-08T06:06:52;1.98;;;0.43;;
47958;SDS011;33718;50.910;-1.514;2023-01-08T06:08:54;2.75;;;0.50;;
47958;SDS011;33718;50.910;-1.514;2023-01-08T06:11:02;1.60;;;0.40;;
47958;SDS011;33718;50.910;-1.514;2023-01-08T06:13:07;1.70;;;0.60;;
47958;SDS011;33718;50.910;-1.514;2023-01-08T06:15:09;3.30;;;0.63;;
47958;SDS011;33718;50.910;-1.514;2023-01-08T06:17:17;1.23;;;0.30;;
47958;SDS011;33718;50.910;-1.514;2023-01-08T06:19:21;0.28;;;0.28;;
47958;SDS011;33718;50.910;-1.514;2023-01-08T06:21:26;0.68;;;0.22;;
47958;SDS011;33718;50.910;-1.514;2023-01-08T06:23:33;0.30;;;0.20;;
47958;SDS011;33718;50.910;-1.514;2023-01-08T06:25:40;0.68;;;0.13;;
47958;SDS011;33718;50.910;-1.514;2023-01-08T06:27:42;0.63;;;0.20;;
47958;SDS011;33718;50.910;-1.514;2023-01-08T06:29:47;0.10;;;0.10;;
47958;SDS011;33718;50.910;-1.514;2023-01-08T06:31:54;0.25;;;0.20;;
47958;SDS011;33718;50.910;-1.514;2023-01-08T06:33:59;0.32;;;0.10;;
47958;SDS011;33718;50.910;-1.514;2023-01-08T06:36:01;0.20;;;0.20;;
47958;SDS011;33718;50.910;-1.514;2023-01-08T06:38:04;0.40;;;0.10;;
47958;SDS011;33718;50.910;-1.514;2023-01-08T06:40:06;0.10;;;0.10;;
47958;SDS011;33718;50.910;-1.514;2023-01-08T06:42:11;0.25;;;0.20;;
47958;SDS011;33718;50.910;-1.514;2023-01-08T06:44:12;0.43;;;0.10;;
47958;SDS011;33718;50.910;-1.514;2023-01-08T06:46:20;0.10;;;0.10;;
47958;SDS011;33718;50.910;-1.514;2023-01-08T06:48:27;0.32;;;0.13;;
47958;SDS011;33718;50.910;-1.514;2023-01-08T06:50:29;0.38;;;0.20;;
47958;SDS011;33718;50.910;-1.514;2023-01-08T06:52:37;0.20;;;0.20;;
47958;SDS011;33718;50.910;-1.514;2023-01-08T06:54:41;0.10;;;0.10;;
47958;SDS011;33718;50.910;-1.514;2023-01-08T06:56:43;0.57;;;0.30;;
47958;SDS011;33718;50.910;-1.514;2023-01-08T06:59:00;0.43;;;0.22;;
47958;SDS011;33718;50.910;-1.514;2023-01-08T07:01:01;0.40;;;0.20;;
47958;SDS011;33718;50.910;-1.514;2023-01-08T07:03:03;1.10;;;0.20;;
47958;SDS011;33718;50.910;-1.514;2023-01-08T07:05:05;0.45;;;0.13;;
47958;SDS011;33718;50.910;-1.514;2023-01-08T07:07:13;0.10;;;0.10;;
47958;SDS011;33718;50.910;-1.514;2023-01-08T07:09:18;1.35;;;0.30;;
47958;SDS011;33718;50.910;-1.514;2023-01-08T07:11:25;0.22;;;0.10;;
47958;SDS011;33718;50.910;-1.514;2023-01-08T07:15:37;0.88;;;0.45;;
47958;SDS011;33718;50.910;-1.514;2023-01-08T07:17:38;1.88;;;0.20;;
47958;SDS011;33718;50.910;-1.514;2023-01-08T07:19:40;0.40;;;0.20;;
47958;SDS011;33718;50.910;-1.514;2023-01-08T07:21:43;2.78;;;0.50;;
47958;SDS011;33718;50.910;-1.514;2023-01-08T07:23:51;1.42;;;0.30;;
47958;SDS011;33718;50.910;-1.514;2023-01-08T07:25:52;5.57;;;0.60;;
47958;SDS011;33718;50.910;-1.514;2023-01-08T07:27:58;7.25;;;1.00;;
47958;SDS011;33718;50.910;-1.514;2023-01-08T07:30:02;14.13;;;1.73;;
47958;SDS011;33718;50.910;-1.514;2023-01-08T07:32:04;8.85;;;1.67;;
47958;SDS011;33718;50.910;-1.514;2023-01-08T07:34:08;13.52;;;1.98;;
47958;SDS011;33718;50.910;-1.514;2023-01-08T07:36:10;10.65;;;2.33;;
47958;SDS011;33718;50.910;-1.514;2023-01-08T07:38:14;16.65;;;2.20;;
47958;SDS011;33718;50.910;-1.514;2023-01-08T07:40:16;17.85;;;2.47;;
47958;SDS011;33718;50.910;-1.514;2023-01-08T07:42:18;15.35;;;2.83;;
47958;SDS011;33718;50.910;-1.514;2023-01-08T07:44:22;19.85;;;2.97;;
47958;SDS011;33718;50.910;-1.514;2023-01-08T07:46:23;11.20;;;2.45;;
47958;SDS011;33718;50.910;-1.514;2023-01-08T07:48:28;25.77;;;6.07;;
47958;SDS011;33718;50.910;-1.514;2023-01-08T07:52:34;13.32;;;2.30;;
47958;SDS011;33718;50.910;-1.514;2023-01-08T07:54:41;9.68;;;2.53;;
47958;SDS011;33718;50.910;-1.514;2023-01-08T07:56:43;12.25;;;2.00;;
47958;SDS011;33718;50.910;-1.514;2023-01-08T07:58:50;15.20;;;2.75;;
47958;SDS011;33718;50.910;-1.514;2023-01-08T08:00:55;23.98;;;3.92;;
47958;SDS011;33718;50.910;-1.514;2023-01-08T08:03:06;13.80;;;2.90;;
47958;SDS011;33718;50.910;-1.514;2023-01-08T08:05:11;14.80;;;3.30;;
47958;SDS011;33718;50.910;-1.514;2023-01-08T08:07:12;14.93;;;2.97;;
47958;SDS011;33718;50.910;-1.514;2023-01-08T08:09:14;10.38;;;2.13;;
47958;SDS011;33718;50.910;-1.514;2023-01-08T08:11:16;10.05;;;2.00;;
47958;SDS011;33718;50.910;-1.514;2023-01-08T08:13:24;6.97;;;2.08;;
47958;SDS011;33718;50.910;-1.514;2023-01-08T08:15:25;3.67;;;1.60;;
47958;SDS011;33718;50.910;-1.514;2023-01-08T08:17:32;9.68;;;1.50;;
47958;SDS011;33718;50.910;-1.514;2023-01-08T08:19:41;5.75;;;1.40;;
47958;SDS011;33718;50.910;-1.514;2023-01-08T08:21:47;2.95;;;0.88;;
47958;SDS011;33718;50.910;-1.514;2023-01-08T08:23:55;7.15;;;2.28;;
47958;SDS011;33718;50.910;-1.514;2023-01-08T08:26:04;10.02;;;1.80;;
47958;SDS011;33718;50.910;-1.514;2023-01-08T08:28:16;5.95;;;1.40;;
47958;SDS011;33718;50.910;-1.514;2023-01-08T08:30:23;4.82;;;1.00;;
47958;SDS011;33718;50.910;-1.514;2023-01-08T08:32:30;14.82;;;2.97;;
47958;SDS011;33718;50.910;-1.514;2023-01-08T08:34:34;6.57;;;1.30;;
47958;SDS011;33718;50.910;-1.514;2023-01-08T08:36:44;8.07;;;1.67;;
47958;SDS011;33718;50.910;-1.514;2023-01-08T08:38:47;11.20;;;2.60;;
47958;SDS011;33718;50.910;-1.514;2023-01-08T08:40:55;9.68;;;2.33;;
47958;SDS011;33718;50.910;-1.514;2023-01-08T08:43:01;6.32;;;1.52;;
47958;SDS011;33718;50.910;-1.514;2023-01-08T08:45:05;8.32;;;1.52;;
47958;SDS011;33718;50.910;-1.514;2023-01-08T08:47:13;9.57;;;2.25;;
47958;SDS011;33718;50.910;-1.514;2023-01-08T08:49:17;12.43;;;1.63;;
47958;SDS011;33718;50.910;-1.514;2023-01-08T08:51:22;6.60;;;1.38;;
47958;SDS011;33718;50.910;-1.514;2023-01-08T08:53:31;5.40;;;1.42;;
47958;SDS011;33718;50.910;-1.514;2023-01-08T08:55:36;3.55;;;0.98;;
47958;SDS011;33718;50.910;-1.514;2023-01-08T08:57:39;5.15;;;1.00;;
47958;SDS011;33718;50.910;-1.514;2023-01-08T08:59:43;7.45;;;1.10;;
47958;SDS011;33718;50.910;-1.514;2023-01-08T09:01:46;5.73;;;1.17;;
47958;SDS011;33718;50.910;-1.514;2023-01-08T09:03:53;7.75;;;1.10;;
47958;SDS011;33718;50.910;-1.514;2023-01-08T09:05:55;4.78;;;0.82;;
47958;SDS011;33718;50.910;-1.514;2023-01-08T09:08:03;10.15;;;1.40;;
47958;SDS011;33718;50.910;-1.514;2023-01-08T09:10:10;9.27;;;1.40;;
47958;SDS011;33718;50.910;-1.514;2023-01-08T09:12:12;19.15;;;2.38;;
47958;SDS011;33718;50.910;-1.514;2023-01-08T09:14:19;17.17;;;3.00;;
47958;SDS011;33718;50.910;-1.514;2023-01-08T09:16:24;17.38;;;2.83;;
47958;SDS011;33718;50.910;-1.514;2023-01-08T09:18:29;13.75;;;2.75;;
47958;SDS011;33718;50.910;-1.514;2023-01-08T09:20:30;10.75;;;2.78;;
47958;SDS011;33718;50.910;-1.514;2023-01-08T09:22:32;11.45;;;2.42;;
47958;SDS011;33718;50.910;-1.514;2023-01-08T09:24:39;12.43;;;2.75;;
47958;SDS011;33718;50.910;-1.514;2023-01-08T09:26:47;14.60;;;2.75;;
47958;SDS011;33718;50.910;-1.514;2023-01-08T09:30:53;20.85;;;3.05;;
47958;SDS011;33718;50.910;-1.514;2023-01-08T09:32:58;20.00;;;3.28;;
47958;SDS011;33718;50.910;-1.514;2023-01-08T09:35:08;11.75;;;3.60;;
47958;SDS011;33718;50.910;-1.514;2023-01-08T09:37:10;17.33;;;4.00;;
47958;SDS011;33718;50.910;-1.514;2023-01-08T09:39:17;21.13;;;3.83;;
47958;SDS011;33718;50.910;-1.514;2023-01-08T09:41:26;25.80;;;5.22;;
47958;SDS011;33718;50.910;-1.514;2023-01-08T09:43:33;27.20;;;4.78;;
47958;SDS011;33718;50.910;-1.514;2023-01-08T09:45:41;24.95;;;4.75;;
47958;SDS011;33718;50.910;-1.514;2023-01-08T09:47:44;15.57;;;4.18;;
47958;SDS011;33718;50.910;-1.514;2023-01-08T09:49:45;11.65;;;2.33;;
47958;SDS011;33718;50.910;-1.514;2023-01-08T09:51:48;17.42;;;3.42;;
47958;SDS011;33718;50.910;-1.514;2023-01-08T09:53:52;18.73;;;2.88;;
47958;SDS011;33718;50.910;-1.514;2023-01-08T09:56:02;16.50;;;2.80;;
47958;SDS011;33718;50.910;-1.514;2023-01-08T10:00:39;15.77;;;2.63;;
47958;SDS011;33718;50.910;-1.514;2023-01-08T10:02:42;17.60;;;2.47;;
47958;SDS011;33718;50.910;-1.514;2023-01-08T10:04:57;7.63;;;2.58;;
47958;SDS011;33718;50.910;-1.514;2023-01-08T10:07:07;10.93;;;1.73;;
47958;SDS011;33718;50.910;-1.514;2023-01-08T10:09:14;8.82;;;1.90;;
47958;SDS011;33718;50.910;-1.514;2023-01-08T10:11:16;7.05;;;2.00;;
47958;SDS011;33718;50.910;-1.514;2023-01-08T10:13:18;5.82;;;1.27;;
47958;SDS011;33718;50.910;-1.514;2023-01-08T10:15:20;6.07;;;1.23;;
47958;SDS011;33718;50.910;-1.514;2023-01-08T10:17:38;14.40;;;1.58;;
47958;SDS011;33718;50.910;-1.514;2023-01-08T10:19:46;8.05;;;0.98;;
47958;SDS011;33718;50.910;-1.514;2023-01-08T10:21:50;3.75;;;0.70;;
47958;SDS011;33718;50.910;-1.514;2023-01-08T10:23:52;9.95;;;1.35;;
47958;SDS011;33718;50.910;-1.514;2023-01-08T10:25:57;6.78;;;1.30;;
47958;SDS011;33718;50.910;-1.514;2023-01-08T10:28:00;9.90;;;1.48;;
47958;SDS011;33718;50.910;-1.514;2023-01-08T10:30:15;10.80;;;1.40;;
47958;SDS011;33718;50.910;-1.514;2023-01-08T10:32:19;13.02;;;2.45;;
47958;SDS011;33718;50.910;-1.514;2023-01-08T10:34:27;12.75;;;1.88;;
47958;SDS011;33718;50.910;-1.514;2023-01-08T10:36:37;12.45;;;1.20;;
47958;SDS011;33718;50.910;-1.514;2023-01-08T10:40:50;5.00;;;1.67;;
47958;SDS011;33718;50.910;-1.514;2023-01-08T10:43:04;9.27;;;1.40;;
47958;SDS011;33718;50.910;-1.514;2023-01-08T10:45:25;8.35;;;1.30;;
47958;SDS011;33718;50.910;-1.514;2023-01-08T10:47:33;5.15;;;1.13;;
47958;SDS011;33718;50.910;-1.514;2023-01-08T10:49:39;12.10;;;2.42;;
47958;SDS011;33718;50.910;-1.514;2023-01-08T10:51:49;11.45;;;1.70;;
47958;SDS011;33718;50.910;-1.514;2023-01-08T10:53:52;11.38;;;1.70;;
47958;SDS011;33718;50.910;-1.514;2023-01-08T10:56:01;4.93;;;1.00;;
47958;SDS011;33718;50.910;-1.514;2023-01-08T11:02:33;7.93;;;1.10;;
47958;SDS011;33718;50.910;-1.514;2023-01-08T11:04:46;12.90;;;1.55;;
47958;SDS011;33718;50.910;-1.514;2023-01-08T11:07:31;8.52;;;1.30;;
47958;SDS011;33718;50.910;-1.514;2023-01-08T11:10:02;5.68;;;1.00;;
47958;SDS011;33718;50.910;-1.514;2023-01-08T11:14:32;4.88;;;1.42;;
47958;SDS011;33718;50.910;-1.514;2023-01-08T11:16:36;6.00;;;0.98;;
47958;SDS011;33718;50.910;-1.514;2023-01-08T11:18:50;10.80;;;0.85;;
47958;SDS011;33718;50.910;-1.514;2023-01-08T11:20:52;18.73;;;2.07;;
47958;SDS011;33718;50.910;-1.514;2023-01-08T11:23:12;7.03;;;1.13;;
47958;SDS011;33718;50.910;-1.514;2023-01-08T11:25:21;7.53;;;1.55;;
47958;SDS011;33718;50.910;-1.514;2023-01-08T11:27:30;11.57;;;2.00;;
47958;SDS011;33718;50.910;-1.514;2023-01-08T11:34:38;11.45;;;2.70;;
47958;SDS011;33718;50.910;-1.514;2023-01-08T11:36:46;14.43;;;2.83;;
47958;SDS011;33718;50.910;-1.514;2023-01-08T11:39:08;14.70;;;2.38;;
47958;SDS011;33718;50.910;-1.514;2023-01-08T11:41:27;12.00;;;2.45;;
47958;SDS011;33718;50.910;-1.514;2023-01-08T11:46:45;19.70;;;3.08;;
47958;SDS011;33718;50.910;-1.514;2023-01-08T11:53:28;13.15;;;2.75;;
47958;SDS011;33718;50.910;-1.514;2023-01-08T11:55:40;21.33;;;3.38;;
47958;SDS011;33718;50.910;-1.514;2023-01-08T12:07:22;26.88;;;4.10;;
47958;SDS011;33718;50.910;-1.514;2023-01-08T12:11:51;26.92;;;4.05;;
47958;SDS011;33718;50.910;-1.514;2023-01-08T12:18:50;19.05;;;3.97;;
47958;SDS011;33718;50.910;-1.514;2023-01-08T12:21:02;21.17;;;4.22;;
47958;SDS011;33718;50.910;-1.514;2023-01-08T12:27:41;28.92;;;5.03;;
47958;SDS011;33718;50.910;-1.514;2023-01-08T12:36:41;15.52;;;3.55;;
47958;SDS011;33718;50.910;-1.514;2023-01-08T12:38:47;20.88;;;3.92;;
47958;SDS011;33718;50.910;-1.514;2023-01-08T12:40:54;16.77;;;3.88;;
47958;SDS011;33718;50.910;-1.514;2023-01-08T12:42:57;9.93;;;2.38;;
47958;SDS011;33718;50.910;-1.514;2023-01-08T12:45:51;12.88;;;2.72;;
47958;SDS011;33718;50.910;-1.514;2023-01-08T12:47:39;12.85;;;2.42;;
47958;SDS011;33718;50.910;-1.514;2023-01-08T12:49:41;11.68;;;2.22;;
47958;SDS011;33718;50.910;-1.514;2023-01-08T12:53:55;14.57;;;2.33;;
47958;SDS011;33718;50.910;-1.514;2023-01-08T12:58:18;13.30;;;2.80;;
47958;SDS011;33718;50.910;-1.514;2023-01-08T13:00:36;9.95;;;1.75;;
47958;SDS011;33718;50.910;-1.514;2023-01-08T13:02:43;14.95;;;2.70;;
47958;SDS011;33718;50.910;-1.514;2023-01-08T13:04:56;16.88;;;2.97;;
47958;SDS011;33718;50.910;-1.514;2023-01-08T13:06:59;15.95;;;3.88;;
47958;SDS011;33718;50.910;-1.514;2023-01-08T13:09:14;11.45;;;2.42;;
47958;SDS011;33718;50.910;-1.514;2023-01-08T13:11:28;14.63;;;2.85;;
47958;SDS011;33718;50.910;-1.514;2023-01-08T13:13:31;15.68;;;2.80;;
47958;SDS011;33718;50.910;-1.514;2023-01-08T13:15:33;16.13;;;3.28;;
47958;SDS011;33718;50.910;-1.514;2023-01-08T13:17:38;14.88;;;2.70;;
47958;SDS011;33718;50.910;-1.514;2023-01-08T13:19:44;11.20;;;2.45;;
47958;SDS011;33718;50.910;-1.514;2023-01-08T13:21:49;11.60;;;2.85;;
47958;SDS011;33718;50.910;-1.514;2023-01-08T13:23:58;12.95;;;2.60;;
47958;SDS011;33718;50.910;-1.514;2023-01-08T13:26:03;16.67;;;4.03;;
47958;SDS011;33718;50.910;-1.514;2023-01-08T13:28:24;10.95;;;2.40;;
47958;SDS011;33718;50.910;-1.514;2023-01-08T13:30:40;13.07;;;2.35;;
47958;SDS011;33718;50.910;-1.514;2023-01-08T13:32:54;7.13;;;1.45;;
47958;SDS011;33718;50.910;-1.514;2023-01-08T13:37:03;8.98;;;1.83;;
47958;SDS011;33718;50.910;-1.514;2023-01-08T13:41:31;7.43;;;1.77;;
47958;SDS011;33718;50.910;-1.514;2023-01-08T13:43:38;7.43;;;2.50;;
47958;SDS011;33718;50.910;-1.514;2023-01-08T13:46:12;4.72;;;1.48;;
47958;SDS011;33718;50.910;-1.514;2023-01-08T13:48:19;4.88;;;1.42;;
47958;SDS011;33718;50.910;-1.514;2023-01-08T13:50:27;9.82;;;1.42;;
47958;SDS011;33718;50.910;-1.514;2023-01-08T13:54:33;3.38;;;1.30;;
47958;SDS011;33718;50.910;-1.514;2023-01-08T13:56:43;5.30;;;1.23;;
47958;SDS011;33718;50.910;-1.514;2023-01-08T13:58:51;9.50;;;1.20;;
47958;SDS011;33718;50.910;-1.514;2023-01-08T14:00:56;6.30;;;1.35;;